sensor_id;sensor_type;location;lat;lon;timestamp;P1;durP1;ratioP1;P2;durP2;ratioP2
45322;SDS011;31382;50.200;8.674;2023-05-16T00:04:10;35.92;;;21.13;;
45322;SDS011;31382;50.200;8.674;2023-05-16T00:09:13;35.80;;;19.58;;
45322;SDS011;31382;50.200;8.674;2023-05-16T00:14:15;36.30;;;20.55;;
45322;SDS011;31382;50.200;8.674;2023-05-16T00:19:17;31.58;;;18.17;;
45322;SDS011;31382;50.200;8.674;2023-05-16T00:24:20;35.40;;;18.77;;
45322;SDS011;31382;50.200;8.674;2023-05-16T00:29:22;33.30;;;19.42;;
45322;SDS011;31382;50.200;8.674;2023-05-16T00:34:24;29.48;;;18.15;;
45322;SDS011;31382;50.200;8.674;2023-05-16T00:39:26;32.20;;;18.83;;
45322;SDS011;31382;50.200;8.674;2023-05-16T00:44:28;32.45;;;18.10;;
45322;SDS011;31382;50.200;8.674;2023-05-16T00:49:31;28.60;;;16.90;;
45322;SDS011;31382;50.200;8.674;2023-05-16T00:54:33;31.30;;;17.63;;
45322;SDS011;31382;50.200;8.674;2023-05-16T00:59:34;29.42;;;17.85;;
45322;SDS011;31382;50.200;8.674;2023-05-16T01:04:36;27.40;;;16.65;;
45322;SDS011;31382;50.200;8.674;2023-05-16T01:09:37;27.60;;;16.58;;
45322;SDS011;31382;50.200;8.674;2023-05-16T01:14:43;29.08;;;16.85;;
45322;SDS011;31382;50.200;8.674;2023-05-16T01:30:45;22.73;;;15.73;;
45322;SDS011;31382;50.200;8.674;2023-05-16T01:35:52;27.27;;;16.88;;
45322;SDS011;31382;50.200;8.674;2023-05-16T01:41:23;26.98;;;16.35;;
45322;SDS011;31382;50.200;8.674;2023-05-16T01:46:28;29.63;;;17.23;;
45322;SDS011;31382;50.200;8.674;2023-05-16T01:51:34;26.00;;;17.02;;
45322;SDS011;31382;50.200;8.674;2023-05-16T01:56:40;27.92;;;17.25;;
45322;SDS011;31382;50.200;8.674;2023-05-16T02:01:56;29.08;;;18.13;;
45322;SDS011;31382;50.200;8.674;2023-05-16T02:06:58;29.73;;;17.60;;
45322;SDS011;31382;50.200;8.674;2023-05-16T02:12:01;31.08;;;18.63;;
45322;SDS011;31382;50.200;8.674;2023-05-16T02:17:03;33.90;;;19.48;;
45322;SDS011;31382;50.200;8.674;2023-05-16T02:22:04;35.97;;;19.20;;
45322;SDS011;31382;50.200;8.674;2023-05-16T02:27:06;30.85;;;17.85;;
45322;SDS011;31382;50.200;8.674;2023-05-16T02:32:07;27.70;;;16.75;;
45322;SDS011;31382;50.200;8.674;2023-05-16T02:37:09;27.10;;;16.10;;
45322;SDS011;31382;50.200;8.674;2023-05-16T02:42:13;26.70;;;16.33;;
45322;SDS011;31382;50.200;8.674;2023-05-16T02:47:14;26.77;;;15.57;;
45322;SDS011;31382;50.200;8.674;2023-05-16T02:52:16;31.45;;;16.27;;
45322;SDS011;31382;50.200;8.674;2023-05-16T02:57:18;28.92;;;17.05;;
45322;SDS011;31382;50.200;8.674;2023-05-16T03:02:20;32.28;;;17.95;;
45322;SDS011;31382;50.200;8.674;2023-05-16T03:07:22;32.35;;;17.92;;
45322;SDS011;31382;50.200;8.674;2023-05-16T03:12:23;34.38;;;19.10;;
45322;SDS011;31382;50.200;8.674;2023-05-16T03:17:25;34.80;;;18.90;;
45322;SDS011;31382;50.200;8.674;2023-05-16T03:22:26;36.00;;;18.52;;
45322;SDS011;31382;50.200;8.674;2023-05-16T03:27:28;31.35;;;17.20;;
45322;SDS011;31382;50.200;8.674;2023-05-16T03:32:29;30.90;;;17.90;;
45322;SDS011;31382;50.200;8.674;2023-05-16T03:37:31;33.80;;;18.42;;
45322;SDS011;31382;50.200;8.674;2023-05-16T03:42:32;30.95;;;15.70;;
45322;SDS011;31382;50.200;8.674;2023-05-16T03:47:33;32.97;;;17.40;;
45322;SDS011;31382;50.200;8.674;2023-05-16T03:52:35;28.95;;;15.00;;
45322;SDS011;31382;50.200;8.674;2023-05-16T03:57:37;29.90;;;15.20;;
45322;SDS011;31382;50.200;8.674;2023-05-16T04:02:38;23.23;;;13.00;;
45322;SDS011;31382;50.200;8.674;2023-05-16T04:07:41;23.88;;;13.15;;
45322;SDS011;31382;50.200;8.674;2023-05-16T04:12:42;23.73;;;11.23;;
45322;SDS011;31382;50.200;8.674;2023-05-16T04:17:45;22.52;;;11.35;;
45322;SDS011;31382;50.200;8.674;2023-05-16T04:22:46;20.25;;;10.48;;
45322;SDS011;31382;50.200;8.674;2023-05-16T04:27:48;17.85;;;8.90;;
45322;SDS011;31382;50.200;8.674;2023-05-16T04:32:49;17.23;;;9.43;;
45322;SDS011;31382;50.200;8.674;2023-05-16T04:37:51;15.57;;;8.73;;
45322;SDS011;31382;50.200;8.674;2023-05-16T04:42:52;13.38;;;7.07;;
45322;SDS011;31382;50.200;8.674;2023-05-16T04:47:54;14.48;;;6.28;;
45322;SDS011;31382;50.200;8.674;2023-05-16T04:52:56;12.60;;;6.97;;
45322;SDS011;31382;50.200;8.674;2023-05-16T04:57:58;9.48;;;5.22;;
45322;SDS011;31382;50.200;8.674;2023-05-16T05:02:59;7.63;;;4.35;;
45322;SDS011;31382;50.200;8.674;2023-05-16T05:08:01;5.95;;;3.92;;
45322;SDS011;31382;50.200;8.674;2023-05-16T05:13:04;6.57;;;2.75;;
45322;SDS011;31382;50.200;8.674;2023-05-16T05:18:05;6.93;;;3.42;;
45322;SDS011;31382;50.200;8.674;2023-05-16T05:23:07;4.40;;;2.83;;
45322;SDS011;31382;50.200;8.674;2023-05-16T05:28:08;4.60;;;2.50;;
45322;SDS011;31382;50.200;8.674;2023-05-16T05:33:10;6.25;;;2.80;;
45322;SDS011;31382;50.200;8.674;2023-05-16T05:38:12;6.57;;;3.35;;
45322;SDS011;31382;50.200;8.674;2023-05-16T05:43:13;5.28;;;2.58;;
45322;SDS011;31382;50.200;8.674;2023-05-16T05:48:15;1.85;;;0.90;;
45322;SDS011;31382;50.200;8.674;2023-05-16T05:53:17;1.10;;;0.50;;
45322;SDS011;31382;50.200;8.674;2023-05-16T05:58:19;0.32;;;0.30;;
45322;SDS011;31382;50.200;8.674;2023-05-16T06:03:21;0.60;;;0.40;;
45322;SDS011;31382;50.200;8.674;2023-05-16T06:08:23;1.25;;;0.47;;
45322;SDS011;31382;50.200;8.674;2023-05-16T06:13:24;0.50;;;0.40;;
45322;SDS011;31382;50.200;8.674;2023-05-16T06:18:25;0.85;;;0.40;;
45322;SDS011;31382;50.200;8.674;2023-05-16T06:23:27;1.45;;;0.40;;
45322;SDS011;31382;50.200;8.674;2023-05-16T06:28:28;0.98;;;0.43;;
45322;SDS011;31382;50.200;8.674;2023-05-16T06:33:30;0.52;;;0.50;;
45322;SDS011;31382;50.200;8.674;2023-05-16T06:38:32;0.50;;;0.40;;
45322;SDS011;31382;50.200;8.674;2023-05-16T06:43:33;1.58;;;0.50;;
45322;SDS011;31382;50.200;8.674;2023-05-16T06:48:34;0.80;;;0.38;;
45322;SDS011;31382;50.200;8.674;2023-05-16T06:53:36;3.25;;;0.43;;
45322;SDS011;31382;50.200;8.674;2023-05-16T06:58:38;1.70;;;0.20;;
45322;SDS011;31382;50.200;8.674;2023-05-16T07:03:40;1.10;;;0.30;;
45322;SDS011;31382;50.200;8.674;2023-05-16T07:08:42;3.13;;;0.20;;
45322;SDS011;31382;50.200;8.674;2023-05-16T07:13:43;0.20;;;0.10;;
45322;SDS011;31382;50.200;8.674;2023-05-16T07:18:45;1.40;;;0.10;;
45322;SDS011;31382;50.200;8.674;2023-05-16T07:23:46;0.38;;;0.20;;
45322;SDS011;31382;50.200;8.674;2023-05-16T07:28:51;0.22;;;0.10;;
45322;SDS011;31382;50.200;8.674;2023-05-16T07:33:52;0.38;;;0.38;;
45322;SDS011;31382;50.200;8.674;2023-05-16T07:38:54;0.20;;;0.10;;
45322;SDS011;31382;50.200;8.674;2023-05-16T07:43:55;1.15;;;0.00;;
45322;SDS011;31382;50.200;8.674;2023-05-16T07:48:57;0.15;;;0.10;;
45322;SDS011;31382;50.200;8.674;2023-05-16T07:53:58;0.00;;;0.00;;
45322;SDS011;31382;50.200;8.674;2023-05-16T07:59:00;0.10;;;0.10;;
45322;SDS011;31382;50.200;8.674;2023-05-16T08:04:01;0.20;;;0.00;;
45322;SDS011;31382;50.200;8.674;2023-05-16T08:09:03;1.27;;;0.10;;
45322;SDS011;31382;50.200;8.674;2023-05-16T08:14:04;0.10;;;0.10;;
45322;SDS011;31382;50.200;8.674;2023-05-16T08:19:06;0.90;;;0.00;;
45322;SDS011;31382;50.200;8.674;2023-05-16T08:24:07;0.00;;;0.00;;
45322;SDS011;31382;50.200;8.674;2023-05-16T08:29:11;0.30;;;0.10;;
45322;SDS011;31382;50.200;8.674;2023-05-16T08:34:12;0.10;;;0.10;;
45322;SDS011;31382;50.200;8.674;2023-05-16T08:39:14;0.13;;;0.10;;
45322;SDS011;31382;50.200;8.674;2023-05-16T08:44:15;0.35;;;0.10;;
45322;SDS011;31382;50.200;8.674;2023-05-16T08:49:21;0.25;;;0.15;;
45322;SDS011;31382;50.200;8.674;2023-05-16T08:54:27;1.48;;;0.10;;
45322;SDS011;31382;50.200;8.674;2023-05-16T08:59:28;1.45;;;0.20;;
45322;SDS011;31382;50.200;8.674;2023-05-16T09:04:30;0.75;;;0.20;;
45322;SDS011;31382;50.200;8.674;2023-05-16T09:09:32;0.35;;;0.20;;
45322;SDS011;31382;50.200;8.674;2023-05-16T09:14:33;1.30;;;0.13;;
45322;SDS011;31382;50.200;8.674;2023-05-16T09:19:39;0.32;;;0.20;;
45322;SDS011;31382;50.200;8.674;2023-05-16T09:24:42;3.10;;;0.20;;
45322;SDS011;31382;50.200;8.674;2023-05-16T09:29:45;2.92;;;0.30;;
45322;SDS011;31382;50.200;8.674;2023-05-16T09:34:52;0.98;;;0.15;;
45322;SDS011;31382;50.200;8.674;2023-05-16T09:39:54;1.98;;;0.30;;
45322;SDS011;31382;50.200;8.674;2023-05-16T09:44:56;1.60;;;0.30;;
45322;SDS011;31382;50.200;8.674;2023-05-16T09:49:57;1.08;;;0.30;;
45322;SDS011;31382;50.200;8.674;2023-05-16T09:55:01;1.95;;;0.40;;
45322;SDS011;31382;50.200;8.674;2023-05-16T10:00:06;5.57;;;0.60;;
45322;SDS011;31382;50.200;8.674;2023-05-16T10:05:10;1.83;;;0.32;;
45322;SDS011;31382;50.200;8.674;2023-05-16T10:10:11;2.13;;;0.40;;
45322;SDS011;31382;50.200;8.674;2023-05-16T10:15:14;6.00;;;0.40;;
45322;SDS011;31382;50.200;8.674;2023-05-16T10:20:16;3.83;;;0.50;;
45322;SDS011;31382;50.200;8.674;2023-05-16T10:25:26;4.93;;;0.88;;
45322;SDS011;31382;50.200;8.674;2023-05-16T10:30:33;2.97;;;0.73;;
45322;SDS011;31382;50.200;8.674;2023-05-16T10:35:35;4.72;;;0.95;;
45322;SDS011;31382;50.200;8.674;2023-05-16T10:40:37;5.13;;;0.73;;
45322;SDS011;31382;50.200;8.674;2023-05-16T10:45:40;3.70;;;0.70;;
45322;SDS011;31382;50.200;8.674;2023-05-16T10:50:42;8.02;;;0.43;;
45322;SDS011;31382;50.200;8.674;2023-05-16T11:06:20;4.38;;;0.38;;
45322;SDS011;31382;50.200;8.674;2023-05-16T11:16:39;5.05;;;0.45;;
45322;SDS011;31382;50.200;8.674;2023-05-16T11:32:46;1.88;;;0.30;;
45322;SDS011;31382;50.200;8.674;2023-05-16T11:37:48;4.50;;;1.33;;
45322;SDS011;31382;50.200;8.674;2023-05-16T11:42:51;4.20;;;0.63;;
45322;SDS011;31382;50.200;8.674;2023-05-16T11:47:52;8.80;;;0.57;;
45322;SDS011;31382;50.200;8.674;2023-05-16T11:52:54;3.88;;;0.30;;
45322;SDS011;31382;50.200;8.674;2023-05-16T11:57:57;2.33;;;0.25;;
45322;SDS011;31382;50.200;8.674;2023-05-16T12:03:00;2.35;;;0.55;;
45322;SDS011;31382;50.200;8.674;2023-05-16T12:08:06;4.70;;;0.20;;
45322;SDS011;31382;50.200;8.674;2023-05-16T12:13:10;2.50;;;0.70;;
45322;SDS011;31382;50.200;8.674;2023-05-16T12:18:12;1.95;;;0.20;;
45322;SDS011;31382;50.200;8.674;2023-05-16T12:23:15;1.83;;;0.30;;
45322;SDS011;31382;50.200;8.674;2023-05-16T12:28:16;1.70;;;0.30;;
45322;SDS011;31382;50.200;8.674;2023-05-16T12:33:18;1.00;;;0.10;;
45322;SDS011;31382;50.200;8.674;2023-05-16T12:38:20;4.72;;;0.20;;
45322;SDS011;31382;50.200;8.674;2023-05-16T12:43:21;3.10;;;0.40;;
45322;SDS011;31382;50.200;8.674;2023-05-16T12:48:23;3.03;;;0.20;;
45322;SDS011;31382;50.200;8.674;2023-05-16T12:53:34;2.72;;;0.28;;
45322;SDS011;31382;50.200;8.674;2023-05-16T12:59:01;4.20;;;0.30;;
45322;SDS011;31382;50.200;8.674;2023-05-16T13:04:03;3.13;;;0.30;;
45322;SDS011;31382;50.200;8.674;2023-05-16T13:09:05;3.03;;;0.28;;
45322;SDS011;31382;50.200;8.674;2023-05-16T13:14:07;1.58;;;0.22;;
45322;SDS011;31382;50.200;8.674;2023-05-16T13:19:09;1.40;;;0.20;;
45322;SDS011;31382;50.200;8.674;2023-05-16T13:24:11;2.67;;;0.20;;
45322;SDS011;31382;50.200;8.674;2023-05-16T13:29:12;3.53;;;0.28;;
45322;SDS011;31382;50.200;8.674;2023-05-16T13:34:14;4.15;;;0.20;;
45322;SDS011;31382;50.200;8.674;2023-05-16T13:39:16;2.58;;;0.22;;
45322;SDS011;31382;50.200;8.674;2023-05-16T13:44:18;7.78;;;0.30;;
45322;SDS011;31382;50.200;8.674;2023-05-16T13:49:21;1.98;;;0.40;;
45322;SDS011;31382;50.200;8.674;2023-05-16T13:54:23;2.28;;;0.30;;
45322;SDS011;31382;50.200;8.674;2023-05-16T13:59:25;2.33;;;0.30;;
45322;SDS011;31382;50.200;8.674;2023-05-16T14:04:47;1.08;;;0.20;;
45322;SDS011;31382;50.200;8.674;2023-05-16T14:09:50;1.40;;;0.20;;
45322;SDS011;31382;50.200;8.674;2023-05-16T14:14:51;2.88;;;0.20;;
45322;SDS011;31382;50.200;8.674;2023-05-16T14:19:54;7.38;;;0.20;;
45322;SDS011;31382;50.200;8.674;2023-05-16T14:24:56;4.65;;;0.30;;
45322;SDS011;31382;50.200;8.674;2023-05-16T14:29:58;3.53;;;0.17;;
45322;SDS011;31382;50.200;8.674;2023-05-16T14:34:59;2.13;;;0.15;;
45322;SDS011;31382;50.200;8.674;2023-05-16T14:40:01;2.33;;;1.17;;
45322;SDS011;31382;50.200;8.674;2023-05-16T14:45:02;2.25;;;0.20;;
45322;SDS011;31382;50.200;8.674;2023-05-16T14:50:05;2.17;;;0.10;;
45322;SDS011;31382;50.200;8.674;2023-05-16T14:55:07;2.67;;;0.60;;
45322;SDS011;31382;50.200;8.674;2023-05-16T15:00:09;3.50;;;0.50;;
45322;SDS011;31382;50.200;8.674;2023-05-16T15:05:11;1.80;;;0.20;;
45322;SDS011;31382;50.200;8.674;2023-05-16T15:10:13;5.07;;;0.30;;
45322;SDS011;31382;50.200;8.674;2023-05-16T15:15:14;3.33;;;0.20;;
45322;SDS011;31382;50.200;8.674;2023-05-16T15:20:17;2.50;;;0.10;;
45322;SDS011;31382;50.200;8.674;2023-05-16T15:25:21;3.00;;;0.20;;
45322;SDS011;31382;50.200;8.674;2023-05-16T15:30:22;3.17;;;0.20;;
45322;SDS011;31382;50.200;8.674;2023-05-16T15:35:24;4.03;;;0.13;;
45322;SDS011;31382;50.200;8.674;2023-05-16T15:40:26;0.63;;;0.10;;
45322;SDS011;31382;50.200;8.674;2023-05-16T15:45:28;3.38;;;0.20;;
45322;SDS011;31382;50.200;8.674;2023-05-16T15:50:30;1.25;;;0.20;;
45322;SDS011;31382;50.200;8.674;2023-05-16T15:55:32;2.22;;;0.30;;
45322;SDS011;31382;50.200;8.674;2023-05-16T16:00:34;1.98;;;0.10;;
45322;SDS011;31382;50.200;8.674;2023-05-16T16:05:35;2.92;;;0.50;;
45322;SDS011;31382;50.200;8.674;2023-05-16T16:10:37;2.20;;;0.17;;
45322;SDS011;31382;50.200;8.674;2023-05-16T16:15:39;1.42;;;0.20;;
45322;SDS011;31382;50.200;8.674;2023-05-16T16:20:42;2.50;;;0.20;;
45322;SDS011;31382;50.200;8.674;2023-05-16T16:25:43;3.38;;;0.20;;
45322;SDS011;31382;50.200;8.674;2023-05-16T16:30:45;1.85;;;0.22;;
45322;SDS011;31382;50.200;8.674;2023-05-16T16:35:47;2.17;;;0.30;;
45322;SDS011;31382;50.200;8.674;2023-05-16T16:40:49;2.22;;;0.20;;
45322;SDS011;31382;50.200;8.674;2023-05-16T16:45:50;3.28;;;0.20;;
45322;SDS011;31382;50.200;8.674;2023-05-16T16:50:52;3.90;;;0.30;;
45322;SDS011;31382;50.200;8.674;2023-05-16T16:55:54;1.25;;;0.20;;
45322;SDS011;31382;50.200;8.674;2023-05-16T17:00:55;1.80;;;0.52;;
45322;SDS011;31382;50.200;8.674;2023-05-16T17:05:57;2.03;;;0.20;;
45322;SDS011;31382;50.200;8.674;2023-05-16T17:10:58;2.47;;;0.20;;
45322;SDS011;31382;50.200;8.674;2023-05-16T17:16:00;1.67;;;0.20;;
45322;SDS011;31382;50.200;8.674;2023-05-16T17:21:02;1.65;;;0.20;;
45322;SDS011;31382;50.200;8.674;2023-05-16T17:26:03;3.80;;;0.30;;
45322;SDS011;31382;50.200;8.674;2023-05-16T17:31:05;1.83;;;0.20;;
45322;SDS011;31382;50.200;8.674;2023-05-16T17:36:06;2.15;;;0.10;;
45322;SDS011;31382;50.200;8.674;2023-05-16T17:41:08;1.23;;;0.20;;
45322;SDS011;31382;50.200;8.674;2023-05-16T17:46:09;3.13;;;0.30;;
45322;SDS011;31382;50.200;8.674;2023-05-16T17:51:11;1.75;;;0.32;;
45322;SDS011;31382;50.200;8.674;2023-05-16T17:56:12;2.28;;;0.30;;
45322;SDS011;31382;50.200;8.674;2023-05-16T18:01:14;1.52;;;0.30;;
45322;SDS011;31382;50.200;8.674;2023-05-16T18:06:15;0.40;;;0.20;;
45322;SDS011;31382;50.200;8.674;2023-05-16T18:11:17;1.48;;;0.40;;
45322;SDS011;31382;50.200;8.674;2023-05-16T18:16:19;2.60;;;0.20;;
45322;SDS011;31382;50.200;8.674;2023-05-16T18:21:20;1.70;;;0.22;;
45322;SDS011;31382;50.200;8.674;2023-05-16T18:26:21;4.72;;;0.25;;
45322;SDS011;31382;50.200;8.674;2023-05-16T18:31:23;3.70;;;0.30;;
45322;SDS011;31382;50.200;8.674;2023-05-16T18:36:25;1.15;;;0.20;;
45322;SDS011;31382;50.200;8.674;2023-05-16T18:41:26;3.17;;;0.22;;
45322;SDS011;31382;50.200;8.674;2023-05-16T18:46:27;6.25;;;0.68;;
45322;SDS011;31382;50.200;8.674;2023-05-16T18:51:29;2.20;;;0.20;;
45322;SDS011;31382;50.200;8.674;2023-05-16T18:56:31;1.20;;;0.20;;
45322;SDS011;31382;50.200;8.674;2023-05-16T19:13:51;2.70;;;0.20;;
45322;SDS011;31382;50.200;8.674;2023-05-16T19:18:53;2.05;;;0.20;;
45322;SDS011;31382;50.200;8.674;2023-05-16T19:24:02;8.40;;;1.30;;
45322;SDS011;31382;50.200;8.674;2023-05-16T19:29:06;3.33;;;0.28;;
45322;SDS011;31382;50.200;8.674;2023-05-16T19:39:37;2.92;;;0.20;;
45322;SDS011;31382;50.200;8.674;2023-05-16T19:44:39;1.83;;;0.30;;
45322;SDS011;31382;50.200;8.674;2023-05-16T19:49:40;1.88;;;1.77;;
45322;SDS011;31382;50.200;8.674;2023-05-16T19:54:42;1.83;;;0.32;;
45322;SDS011;31382;50.200;8.674;2023-05-16T19:59:43;2.75;;;0.38;;
45322;SDS011;31382;50.200;8.674;2023-05-16T20:04:45;1.77;;;0.30;;
45322;SDS011;31382;50.200;8.674;2023-05-16T20:09:46;2.30;;;0.40;;
45322;SDS011;31382;50.200;8.674;2023-05-16T20:14:48;2.55;;;0.40;;
45322;SDS011;31382;50.200;8.674;2023-05-16T20:19:49;0.88;;;0.22;;
45322;SDS011;31382;50.200;8.674;2023-05-16T20:24:51;2.53;;;0.40;;
45322;SDS011;31382;50.200;8.674;2023-05-16T20:29:52;1.27;;;0.30;;
45322;SDS011;31382;50.200;8.674;2023-05-16T20:34:54;2.72;;;0.40;;
45322;SDS011;31382;50.200;8.674;2023-05-16T20:39:55;2.60;;;0.40;;
45322;SDS011;31382;50.200;8.674;2023-05-16T20:44:57;6.53;;;0.30;;
45322;SDS011;31382;50.200;8.674;2023-05-16T20:49:58;2.45;;;0.30;;
45322;SDS011;31382;50.200;8.674;2023-05-16T20:55:00;3.45;;;0.47;;
45322;SDS011;31382;50.200;8.674;2023-05-16T21:00:02;1.80;;;0.30;;
45322;SDS011;31382;50.200;8.674;2023-05-16T21:05:04;3.25;;;0.32;;
45322;SDS011;31382;50.200;8.674;2023-05-16T21:10:24;5.40;;;0.60;;
45322;SDS011;31382;50.200;8.674;2023-05-16T21:15:26;3.20;;;0.70;;
45322;SDS011;31382;50.200;8.674;2023-05-16T21:20:28;1.52;;;0.30;;
45322;SDS011;31382;50.200;8.674;2023-05-16T21:25:30;7.50;;;1.52;;
45322;SDS011;31382;50.200;8.674;2023-05-16T21:30:31;5.45;;;0.40;;
45322;SDS011;31382;50.200;8.674;2023-05-16T21:35:33;4.35;;;0.60;;
45322;SDS011;31382;50.200;8.674;2023-05-16T21:40:34;4.95;;;0.28;;
45322;SDS011;31382;50.200;8.674;2023-05-16T21:45:36;1.67;;;0.30;;
45322;SDS011;31382;50.200;8.674;2023-05-16T21:50:37;3.03;;;0.32;;
45322;SDS011;31382;50.200;8.674;2023-05-16T21:55:39;3.85;;;0.38;;
45322;SDS011;31382;50.200;8.674;2023-05-16T22:00:41;2.75;;;0.40;;
45322;SDS011;31382;50.200;8.674;2023-05-16T22:05:42;4.30;;;0.30;;
45322;SDS011;31382;50.200;8.674;2023-05-16T22:10:43;2.30;;;0.80;;
45322;SDS011;31382;50.200;8.674;2023-05-16T22:15:45;0.95;;;0.40;;
45322;SDS011;31382;50.200;8.674;2023-05-16T22:21:03;5.38;;;0.80;;
45322;SDS011;31382;50.200;8.674;2023-05-16T22:26:06;5.88;;;0.40;;
45322;SDS011;31382;50.200;8.674;2023-05-16T22:31:07;3.03;;;0.40;;
45322;SDS011;31382;50.200;8.674;2023-05-16T22:36:09;2.10;;;0.52;;
45322;SDS011;31382;50.200;8.674;2023-05-16T22:41:10;5.78;;;1.13;;
45322;SDS011;31382;50.200;8.674;2023-05-16T22:46:12;1.75;;;0.30;;
45322;SDS011;31382;50.200;8.674;2023-05-16T22:51:15;5.38;;;0.60;;
45322;SDS011;31382;50.200;8.674;2023-05-16T22:56:16;2.20;;;0.40;;
45322;SDS011;31382;50.200;8.674;2023-05-16T23:01:18;6.43;;;1.40;;
45322;SDS011;31382;50.200;8.674;2023-05-16T23:06:19;2.58;;;0.60;;
45322;SDS011;31382;50.200;8.674;2023-05-16T23:11:21;3.17;;;0.73;;
45322;SDS011;31382;50.200;8.674;2023-05-16T23:16:23;6.35;;;0.70;;
45322;SDS011;31382;50.200;8.674;2023-05-16T23:21:24;4.75;;;0.60;;
45322;SDS011;31382;50.200;8.674;2023-05-16T23:26:26;2.47;;;0.57;;
45322;SDS011;31382;50.200;8.674;2023-05-16T23:31:27;5.80;;;0.50;;
45322;SDS011;31382;50.200;8.674;2023-05-16T23:36:29;3.25;;;0.73;;
45322;SDS011;31382;50.200;8.674;2023-05-16T23:41:30;3.55;;;0.82;;
45322;SDS011;31382;50.200;8.674;2023-05-16T23:46:31;4.50;;;1.00;;
45322;SDS011;31382;50.200;8.674;2023-05-16T23:51:33;3.53;;;0.80;;
45322;SDS011;31382;50.200;8.674;2023-05-16T23:56:54;3.17;;;0.85;;
